Time;durP1;ratioP1;P1;durP2;ratioP2;P2;SDS_P1;SDS_P2;PMS_P1;PMS_P2;Temp;Humidity;BMP_temperature;BMP_pressure;BME280_temperature;BME280_humidity;BME280_pressure;Samples;Min_cycle;Max_cycle;Signal;HPM_P1;HPM_P2
2023/09/10 00:01:38;;;;;;;;;;;24.60;58.90;;;;;;5092375;28;19931;-61
2023/09/10 00:04:05;;;;;;;;;;;24.60;59.00;;;;;;5091252;28;19989;-61
2023/09/10 00:06:32;;;;;;;;;;;24.60;59.60;;;;;;5090729;28;19928;-61
2023/09/10 00:08:59;;;;;;;;;;;24.60;59.00;;;;;;5092456;28;19923;-60
2023/09/10 00:11:26;;;;;;;;;;;24.60;59.10;;;;;;5097489;28;19928;-64
2023/09/10 00:13:54;;;;;;;;;;;24.60;59.20;;;;;;5089215;28;20328;-61
2023/09/10 00:16:21;;;;;;;;;;;24.60;59.40;;;;;;5089012;28;19924;-62
2023/09/10 00:18:48;;;;;;;;;;;24.60;59.50;;;;;;5090989;28;19963;-62
2023/09/10 00:21:15;;;;;;;;;;;24.60;59.60;;;;;;5096840;28;19924;-61
2023/09/10 00:23:41;;;;;;;;;;;24.60;59.70;;;;;;5093956;28;19924;-60
2023/09/10 00:26:09;;;;;;;;;;;24.60;59.80;;;;;;5091023;28;19924;-61
2023/09/10 00:28:36;;;;;;;;;;;24.60;59.80;;;;;;5091943;28;19969;-61
2023/09/10 00:31:05;;;;;;;;;;;24.60;59.80;;;;;;5090847;28;19924;-61
2023/09/10 00:33:32;;;;;;;;;;;24.60;59.90;;;;;;5086548;28;19931;-60
2023/09/10 00:35:58;;;;;;;;;;;24.60;59.80;;;;;;5085534;28;19946;-62
2023/09/10 00:38:26;;;;;;;;;;;24.60;59.80;;;;;;5090922;28;20247;-61
2023/09/10 00:40:52;;;;;;;;;;;24.60;59.80;;;;;;5089636;28;19924;-61
2023/09/10 00:43:19;;;;;;;;;;;24.60;59.70;;;;;;5093263;28;19928;-61
2023/09/10 00:45:46;;;;;;;;;;;24.60;59.80;;;;;;5089627;28;20007;-61
2023/09/10 00:48:14;;;;;;;;;;;24.60;59.70;;;;;;5092077;28;19977;-62
2023/09/10 00:50:41;;;;;;;;;;;24.60;59.70;;;;;;5091516;28;19935;-61
2023/09/10 00:53:08;;;;;;;;;;;24.60;59.80;;;;;;5085134;28;19975;-61
2023/09/10 00:55:35;;;;;;;;;;;24.60;59.90;;;;;;5095010;28;19923;-62
2023/09/10 00:58:02;;;;;;;;;;;24.60;60.00;;;;;;5111480;27;19928;-61
2023/09/10 01:00:29;;;;;;;;;;;24.60;60.10;;;;;;5089670;28;20004;-62
2023/09/10 01:02:55;;;;;;;;;;;24.60;60.10;;;;;;5093471;28;19924;-62
2023/09/10 01:05:24;;;;;;;;;;;24.60;60.30;;;;;;5093934;28;19928;-61
2023/09/10 01:07:50;;;;;;;;;;;24.60;60.40;;;;;;5097617;28;19932;-61
2023/09/10 01:10:17;;;;;;;;;;;24.60;60.40;;;;;;5085043;28;20002;-61
2023/09/10 01:12:44;;;;;;;;;;;24.60;60.30;;;;;;5099758;28;20019;-61
2023/09/10 01:15:13;;;;;;;;;;;24.60;60.40;;;;;;5109648;28;19948;-60
2023/09/10 01:17:42;;;;;;;;;;;24.60;60.40;;;;;;5090049;28;19935;-61
2023/09/10 01:20:18;;;;;;;;;;;24.60;60.40;;;;;;5091164;28;19928;-61
2023/09/10 01:22:49;;;;;;;;;;;24.60;60.40;;;;;;5112285;28;19924;-61
2023/09/10 01:25:18;;;;;;;;;;;24.60;60.30;;;;;;5091602;28;20463;-61
2023/09/10 01:27:44;;;;;;;;;;;24.60;60.30;;;;;;5091512;28;19924;-61
2023/09/10 01:30:12;;;;;;;;;;;24.60;60.30;;;;;;5105752;28;19938;-61
2023/09/10 01:32:39;;;;;;;;;;;24.60;60.30;;;;;;5090520;28;19928;-60
2023/09/10 01:35:08;;;;;;;;;;;24.60;60.30;;;;;;5107200;28;19924;-62
2023/09/10 01:37:35;;;;;;;;;;;24.60;60.30;;;;;;5102436;28;19924;-60
2023/09/10 01:40:05;;;;;;;;;;;24.60;60.40;;;;;;5093425;28;19932;-61
2023/09/10 01:42:33;;;;;;;;;;;24.60;60.40;;;;;;5088732;28;19931;-61
2023/09/10 01:45:00;;;;;;;;;;;24.60;60.50;;;;;;5092586;28;19924;-60
2023/09/10 01:47:26;;;;;;;;;;;24.60;60.50;;;;;;5089637;28;19980;-60
2023/09/10 01:49:53;;;;;;;;;;;24.60;60.70;;;;;;5090350;28;19928;-62
2023/09/10 01:52:20;;;;;;;;;;;24.60;60.80;;;;;;5096245;28;20053;-61
2023/09/10 01:54:47;;;;;;;;;;;24.60;60.80;;;;;;5094966;28;19928;-60
2023/09/10 01:57:13;;;;;;;;;;;24.60;60.90;;;;;;5100206;28;19923;-61
2023/09/10 01:59:42;;;;;;;;;;;24.60;60.90;;;;;;5089701;28;19931;-61
2023/09/10 02:02:08;;;;;;;;;;;24.60;61.00;;;;;;5085933;28;20274;-61
2023/09/10 02:04:35;;;;;;;;;;;24.60;61.00;;;;;;5105361;28;20023;-61
2023/09/10 02:07:02;;;;;;;;;;;24.60;61.00;;;;;;5090081;28;19924;-61
2023/09/10 02:09:29;;;;;;;;;;;24.60;61.00;;;;;;5091151;28;19981;-61
2023/09/10 02:11:55;;;;;;;;;;;24.60;61.00;;;;;;5089815;28;19928;-62
2023/09/10 02:14:22;;;;;;;;;;;24.60;61.10;;;;;;5083622;28;19940;-61
2023/09/10 02:16:50;;;;;;;;;;;24.60;61.00;;;;;;5093391;28;19989;-61
2023/09/10 02:19:17;;;;;;;;;;;24.60;61.00;;;;;;5078123;28;19970;-61
2023/09/10 02:21:44;;;;;;;;;;;24.60;61.00;;;;;;5110236;28;19946;-61
2023/09/10 02:24:10;;;;;;;;;;;24.60;61.00;;;;;;5093468;28;19969;-61
2023/09/10 02:26:37;;;;;;;;;;;24.60;61.00;;;;;;5093618;28;19924;-61
2023/09/10 02:29:04;;;;;;;;;;;24.60;61.00;;;;;;5096525;28;19985;-61
2023/09/10 02:31:31;;;;;;;;;;;24.60;61.00;;;;;;5090456;28;19931;-62
2023/09/10 02:34:01;;;;;;;;;;;24.60;61.00;;;;;;5093281;28;19959;-63
2023/09/10 02:36:28;;;;;;;;;;;24.60;61.00;;;;;;5097739;28;19954;-62
2023/09/10 02:38:55;;;;;;;;;;;24.60;61.00;;;;;;5092616;28;20015;-61
2023/09/10 02:41:22;;;;;;;;;;;24.60;61.00;;;;;;5112829;27;20258;-61
2023/09/10 02:43:48;;;;;;;;;;;24.60;61.00;;;;;;5093358;28;19993;-61
2023/09/10 02:46:15;;;;;;;;;;;24.60;60.90;;;;;;5095911;28;19924;-62
2023/09/10 02:48:42;;;;;;;;;;;24.60;60.90;;;;;;5094522;28;19931;-62
2023/09/10 02:51:10;;;;;;;;;;;24.60;61.00;;;;;;5094647;28;19924;-60
2023/09/10 02:53:37;;;;;;;;;;;24.60;61.00;;;;;;5099422;28;19994;-61
2023/09/10 02:56:03;;;;;;;;;;;24.60;61.00;;;;;;5106042;28;19925;-61
2023/09/10 02:58:30;;;;;;;;;;;24.60;61.00;;;;;;5102617;28;19950;-62
2023/09/10 03:01:03;;;;;;;;;;;24.60;61.10;;;;;;5094236;28;19924;-60
2023/09/10 03:03:30;;;;;;;;;;;24.60;61.00;;;;;;5097571;28;19931;-61
2023/09/10 03:05:56;;;;;;;;;;;24.60;61.00;;;;;;5115714;27;20076;-60
2023/09/10 03:08:25;;;;;;;;;;;24.60;61.00;;;;;;5099414;28;19924;-62
2023/09/10 03:10:51;;;;;;;;;;;24.50;61.00;;;;;;5094976;28;19924;-61
2023/09/10 03:13:18;;;;;;;;;;;24.60;61.00;;;;;;5101443;28;19932;-62
2023/09/10 03:15:47;;;;;;;;;;;24.50;61.00;;;;;;5095920;28;19924;-60
2023/09/10 03:18:14;;;;;;;;;;;24.60;61.10;;;;;;5092585;28;19924;-61
2023/09/10 03:20:40;;;;;;;;;;;24.60;61.10;;;;;;5089011;28;19932;-61
2023/09/10 03:23:07;;;;;;;;;;;24.60;61.10;;;;;;5091975;28;19932;-61
2023/09/10 03:25:37;;;;;;;;;;;24.50;61.00;;;;;;5092537;28;19973;-61
2023/09/10 03:28:04;;;;;;;;;;;24.60;61.00;;;;;;5093616;28;19967;-61
2023/09/10 03:30:31;;;;;;;;;;;24.60;61.00;;;;;;5094515;28;19932;-61
2023/09/10 03:32:58;;;;;;;;;;;24.60;61.00;;;;;;5092832;28;19924;-63
2023/09/10 03:35:24;;;;;;;;;;;24.50;61.00;;;;;;5092296;28;19924;-62
2023/09/10 03:37:51;;;;;;;;;;;24.50;61.00;;;;;;5089540;28;19924;-61
2023/09/10 03:40:18;;;;;;;;;;;24.60;61.00;;;;;;5094928;28;19992;-63
2023/09/10 03:42:46;;;;;;;;;;;24.50;61.00;;;;;;5093835;28;19924;-61
2023/09/10 03:45:13;;;;;;;;;;;24.50;60.90;;;;;;5095685;28;20191;-61
2023/09/10 03:47:39;;;;;;;;;;;24.50;61.00;;;;;;5091186;28;19920;-61
2023/09/10 03:50:07;;;;;;;;;;;24.50;61.00;;;;;;5094724;28;19924;-62
2023/09/10 03:52:34;;;;;;;;;;;24.50;61.00;;;;;;5094368;28;19928;-61
2023/09/10 03:55:00;;;;;;;;;;;24.50;61.10;;;;;;5087482;28;19924;-61
2023/09/10 03:57:26;;;;;;;;;;;24.50;61.10;;;;;;5096830;28;19928;-63
2023/09/10 03:59:54;;;;;;;;;;;24.50;61.20;;;;;;5091623;28;19947;-61
2023/09/10 04:02:21;;;;;;;;;;;24.50;61.20;;;;;;5099439;28;19977;-62
2023/09/10 04:04:48;;;;;;;;;;;24.50;61.50;;;;;;5090216;28;19931;-61
2023/09/10 04:07:14;;;;;;;;;;;24.50;61.60;;;;;;5121864;27;19924;-60
2023/09/10 04:09:42;;;;;;;;;;;24.50;61.70;;;;;;5087284;28;19935;-61
2023/09/10 04:12:09;;;;;;;;;;;24.50;61.70;;;;;;5093348;28;19924;-61
2023/09/10 04:14:35;;;;;;;;;;;24.50;61.80;;;;;;5122268;27;19977;-61
2023/09/10 04:17:04;;;;;;;;;;;24.50;61.90;;;;;;5094043;28;19928;-61
2023/09/10 04:19:31;;;;;;;;;;;24.50;61.90;;;;;;5091888;28;19930;-60
2023/09/10 04:21:57;;;;;;;;;;;24.50;61.90;;;;;;5094352;28;19924;-61
2023/09/10 04:24:24;;;;;;;;;;;24.50;61.90;;;;;;5091710;28;19924;-62
2023/09/10 04:26:51;;;;;;;;;;;24.50;61.90;;;;;;5089128;28;19928;-61
2023/09/10 04:29:18;;;;;;;;;;;24.50;61.90;;;;;;5073530;28;19954;-61
2023/09/10 04:31:44;;;;;;;;;;;24.50;61.90;;;;;;5090747;28;19931;-61
2023/09/10 04:34:13;;;;;;;;;;;24.40;61.80;;;;;;5099128;28;20297;-61
2023/09/10 04:36:39;;;;;;;;;;;24.50;62.00;;;;;;5090294;28;19970;-60
2023/09/10 04:39:08;;;;;;;;;;;24.40;61.90;;;;;;5097414;28;19973;-61
2023/09/10 04:41:35;;;;;;;;;;;24.40;61.90;;;;;;5107112;27;19924;-62
2023/09/10 04:44:02;;;;;;;;;;;24.40;61.90;;;;;;5093245;28;19942;-62
2023/09/10 04:46:29;;;;;;;;;;;24.40;62.60;;;;;;5088177;28;19928;-61
2023/09/10 04:48:56;;;;;;;;;;;24.40;61.90;;;;;;5099986;28;19924;-61
2023/09/10 04:51:24;;;;;;;;;;;24.40;61.90;;;;;;5120868;27;19935;-61
2023/09/10 04:53:51;;;;;;;;;;;24.40;61.90;;;;;;5095700;28;19927;-61
2023/09/10 04:56:18;;;;;;;;;;;24.40;61.90;;;;;;5090263;28;19938;-61
2023/09/10 04:58:44;;;;;;;;;;;24.40;61.90;;;;;;5107395;28;19924;-60
2023/09/10 05:01:11;;;;;;;;;;;24.40;62.00;;;;;;5087464;28;19933;-61
2023/09/10 05:03:38;;;;;;;;;;;24.40;62.00;;;;;;5100577;28;19923;-61
2023/09/10 05:06:07;;;;;;;;;;;24.40;62.10;;;;;;5094012;28;19977;-61
2023/09/10 05:08:35;;;;;;;;;;;24.40;62.20;;;;;;5114400;27;19928;-62
2023/09/10 05:11:02;;;;;;;;;;;24.40;62.30;;;;;;5090933;28;19932;-62
2023/09/10 05:13:29;;;;;;;;;;;24.40;62.30;;;;;;5103718;28;19924;-61
2023/09/10 05:15:57;;;;;;;;;;;24.40;62.30;;;;;;5093811;28;19974;-61
2023/09/10 05:18:24;;;;;;;;;;;24.40;62.30;;;;;;5115318;28;19962;-62
2023/09/10 05:20:52;;;;;;;;;;;24.40;62.30;;;;;;5097856;28;19935;-61
2023/09/10 05:23:19;;;;;;;;;;;24.40;62.30;;;;;;5102250;28;19966;-61
2023/09/10 05:25:47;;;;;;;;;;;24.40;62.30;;;;;;5089476;28;19959;-62
2023/09/10 05:28:14;;;;;;;;;;;24.40;62.30;;;;;;5093277;28;19924;-63
2023/09/10 05:30:40;;;;;;;;;;;24.40;62.40;;;;;;5089945;28;19931;-61
2023/09/10 05:33:07;;;;;;;;;;;24.30;62.30;;;;;;5091169;28;19928;-62
2023/09/10 05:35:34;;;;;;;;;;;24.40;62.50;;;;;;5090434;28;19950;-62
2023/09/10 05:38:01;;;;;;;;;;;24.40;62.50;;;;;;5094113;28;19924;-61
2023/09/10 05:40:27;;;;;;;;;;;24.40;62.50;;;;;;5097731;28;19928;-61
2023/09/10 05:42:56;;;;;;;;;;;24.30;62.40;;;;;;5090410;28;19928;-60
2023/09/10 05:45:22;;;;;;;;;;;24.30;62.40;;;;;;5089929;28;19932;-62
2023/09/10 05:47:49;;;;;;;;;;;24.30;62.60;;;;;;5105666;28;20059;-60
2023/09/10 05:50:16;;;;;;;;;;;24.30;62.60;;;;;;5100861;28;19931;-62
2023/09/10 05:52:43;;;;;;;;;;;24.30;62.60;;;;;;5089020;28;19935;-60
2023/09/10 05:55:10;;;;;;;;;;;24.30;62.60;;;;;;5094854;28;19931;-61
2023/09/10 05:57:38;;;;;;;;;;;24.30;62.60;;;;;;5092536;28;19961;-61
2023/09/10 06:00:07;;;;;;;;;;;24.30;62.60;;;;;;5092579;28;19931;-61
2023/09/10 06:02:34;;;;;;;;;;;24.30;62.60;;;;;;5109592;28;19932;-61
2023/09/10 06:05:01;;;;;;;;;;;24.30;62.50;;;;;;5094921;28;19924;-61
2023/09/10 06:07:28;;;;;;;;;;;24.30;62.50;;;;;;5099924;28;19924;-63
2023/09/10 06:09:54;;;;;;;;;;;24.30;62.40;;;;;;5090073;28;19931;-62
2023/09/10 06:12:21;;;;;;;;;;;24.30;62.40;;;;;;5097927;28;19932;-61
2023/09/10 06:14:48;;;;;;;;;;;24.30;62.40;;;;;;5085683;28;19977;-60
2023/09/10 06:17:16;;;;;;;;;;;24.30;62.30;;;;;;5122941;27;19924;-61
2023/09/10 06:19:43;;;;;;;;;;;24.30;62.20;;;;;;5098686;28;19935;-61
2023/09/10 06:22:09;;;;;;;;;;;24.30;62.10;;;;;;5109424;28;19928;-60
2023/09/10 06:24:36;;;;;;;;;;;24.30;62.10;;;;;;5089610;28;19929;-61
2023/09/10 06:27:03;;;;;;;;;;;24.30;62.10;;;;;;5095765;28;19928;-61
2023/09/10 06:29:30;;;;;;;;;;;24.30;62.10;;;;;;5095211;28;19973;-61
2023/09/10 06:31:57;;;;;;;;;;;24.30;62.10;;;;;;5094162;28;19935;-61
2023/09/10 06:34:26;;;;;;;;;;;24.30;62.10;;;;;;5089486;28;19924;-62
2023/09/10 06:36:52;;;;;;;;;;;24.20;62.00;;;;;;5092044;28;19924;-61
2023/09/10 06:39:19;;;;;;;;;;;24.20;62.00;;;;;;5090710;28;19924;-62
2023/09/10 06:41:46;;;;;;;;;;;24.20;61.90;;;;;;5091755;28;19924;-61
2023/09/10 06:44:13;;;;;;;;;;;24.20;61.90;;;;;;5098349;28;19932;-60
2023/09/10 06:46:39;;;;;;;;;;;24.20;61.80;;;;;;5091199;28;20010;-61
2023/09/10 06:49:07;;;;;;;;;;;24.20;61.80;;;;;;5094731;28;19924;-60
2023/09/10 06:51:35;;;;;;;;;;;24.20;61.80;;;;;;5123671;27;19924;-61
2023/09/10 06:54:02;;;;;;;;;;;24.20;61.70;;;;;;5109246;28;19928;-61
2023/09/10 06:56:29;;;;;;;;;;;24.20;61.70;;;;;;5097095;28;19982;-62
2023/09/10 06:58:56;;;;;;;;;;;24.20;61.60;;;;;;5087757;28;19978;-61
2023/09/10 07:01:23;;;;;;;;;;;24.20;61.60;;;;;;5108076;28;19950;-63
2023/09/10 07:03:51;;;;;;;;;;;24.20;61.60;;;;;;5115420;27;19924;-61
2023/09/10 07:06:18;;;;;;;;;;;24.20;61.60;;;;;;5091036;28;19932;-62
2023/09/10 07:08:46;;;;;;;;;;;24.20;61.60;;;;;;5091802;28;19969;-62
2023/09/10 07:11:13;;;;;;;;;;;24.20;61.60;;;;;;5090979;28;19936;-63
2023/09/10 07:13:40;;;;;;;;;;;24.20;61.60;;;;;;5086362;28;19925;-61
2023/09/10 07:16:07;;;;;;;;;;;24.20;61.50;;;;;;5091315;28;19932;-63
2023/09/10 07:18:33;;;;;;;;;;;24.10;61.50;;;;;;5089535;28;19932;-61
2023/09/10 07:21:00;;;;;;;;;;;24.20;61.50;;;;;;5085048;28;19920;-61
2023/09/10 07:23:27;;;;;;;;;;;24.20;61.50;;;;;;5112930;27;19924;-63
2023/09/10 07:25:55;;;;;;;;;;;24.10;61.40;;;;;;5108076;28;19934;-61
2023/09/10 07:28:22;;;;;;;;;;;24.10;61.30;;;;;;5092942;28;19981;-62
2023/09/10 07:30:49;;;;;;;;;;;24.10;61.30;;;;;;5085497;28;19924;-61
2023/09/10 07:33:16;;;;;;;;;;;24.10;61.30;;;;;;5091547;28;20421;-61
2023/09/10 07:35:43;;;;;;;;;;;24.10;61.30;;;;;;5088996;28;19924;-62
2023/09/10 07:38:09;;;;;;;;;;;24.10;61.30;;;;;;5092804;28;19924;-62
2023/09/10 07:40:36;;;;;;;;;;;24.10;61.30;;;;;;5095118;27;19928;-61
2023/09/10 07:43:04;;;;;;;;;;;24.10;61.30;;;;;;5090039;28;19950;-61
2023/09/10 07:45:31;;;;;;;;;;;24.10;61.30;;;;;;5089949;28;19946;-61
2023/09/10 07:47:57;;;;;;;;;;;24.10;61.30;;;;;;5089970;28;19930;-62
2023/09/10 07:50:24;;;;;;;;;;;24.10;61.40;;;;;;5091468;28;19959;-63
2023/09/10 07:52:51;;;;;;;;;;;24.10;61.40;;;;;;5088187;28;19924;-60
2023/09/10 07:55:17;;;;;;;;;;;24.10;61.40;;;;;;5089944;28;19947;-61
2023/09/10 07:57:44;;;;;;;;;;;24.10;61.40;;;;;;5087404;28;19928;-60
2023/09/10 08:00:13;;;;;;;;;;;24.10;61.40;;;;;;5089547;28;19940;-61
2023/09/10 08:02:40;;;;;;;;;;;24.10;61.40;;;;;;5087655;28;19938;-63
2023/09/10 08:05:07;;;;;;;;;;;24.10;61.50;;;;;;5090752;28;19997;-61
2023/09/10 08:07:34;;;;;;;;;;;24.10;61.50;;;;;;5090910;28;19928;-62
2023/09/10 08:10:01;;;;;;;;;;;24.10;61.60;;;;;;5089706;28;20426;-61
2023/09/10 08:12:27;;;;;;;;;;;24.10;61.70;;;;;;5087589;28;20018;-62
2023/09/10 08:14:54;;;;;;;;;;;24.00;61.60;;;;;;5090653;28;19927;-61
2023/09/10 08:17:22;;;;;;;;;;;24.00;61.60;;;;;;5089052;28;19928;-62
2023/09/10 08:19:49;;;;;;;;;;;24.00;61.90;;;;;;5090438;28;19927;-61
2023/09/10 08:22:16;;;;;;;;;;;23.90;62.00;;;;;;5089403;28;20027;-64
2023/09/10 08:24:43;;;;;;;;;;;23.90;63.00;;;;;;5104020;28;19924;-61
2023/09/10 08:27:11;;;;;;;;;;;23.90;62.40;;;;;;5106204;27;19928;-62
2023/09/10 08:29:38;;;;;;;;;;;23.80;62.40;;;;;;5087487;28;19919;-62
2023/09/10 08:32:05;;;;;;;;;;;23.80;62.60;;;;;;5092649;28;19928;-63
2023/09/10 08:34:33;;;;;;;;;;;23.80;62.70;;;;;;5090630;28;20382;-63
2023/09/10 08:37:02;;;;;;;;;;;23.70;62.80;;;;;;5088560;28;19924;-62
2023/09/10 08:39:29;;;;;;;;;;;23.70;63.10;;;;;;5086320;28;19928;-61
2023/09/10 08:41:57;;;;;;;;;;;23.60;63.00;;;;;;5096024;28;19932;-61
2023/09/10 08:44:24;;;;;;;;;;;23.60;63.40;;;;;;5120831;27;19935;-62
2023/09/10 08:46:51;;;;;;;;;;;23.60;63.40;;;;;;5088897;28;19940;-61
2023/09/10 08:49:18;;;;;;;;;;;23.50;63.50;;;;;;5077450;28;20022;-61
2023/09/10 08:51:46;;;;;;;;;;;23.50;63.50;;;;;;5109196;27;19946;-62
2023/09/10 08:54:13;;;;;;;;;;;23.50;63.60;;;;;;5086830;28;19924;-60
2023/09/10 08:56:40;;;;;;;;;;;23.40;63.60;;;;;;5092429;28;19924;-61
2023/09/10 08:59:07;;;;;;;;;;;23.40;63.60;;;;;;5089518;28;19928;-62
2023/09/10 09:01:34;;;;;;;;;;;23.40;63.90;;;;;;5096563;28;19924;-59
2023/09/10 09:04:00;;;;;;;;;;;23.30;63.80;;;;;;5091088;28;19925;-61
2023/09/10 09:06:29;;;;;;;;;;;23.30;64.00;;;;;;5097693;28;19920;-62
2023/09/10 09:08:57;;;;;;;;;;;23.30;64.00;;;;;;5102591;28;19924;-60
2023/09/10 09:11:24;;;;;;;;;;;23.30;64.20;;;;;;5111093;27;20153;-60
2023/09/10 09:13:52;;;;;;;;;;;23.20;64.10;;;;;;5109962;28;19924;-59
2023/09/10 09:16:20;;;;;;;;;;;23.20;64.30;;;;;;5109434;28;19980;-61
2023/09/10 09:18:47;;;;;;;;;;;23.10;64.40;;;;;;5102197;28;19989;-61
2023/09/10 09:21:16;;;;;;;;;;;23.10;64.50;;;;;;5106936;28;19975;-59
2023/09/10 09:23:45;;;;;;;;;;;23.10;64.80;;;;;;5089666;28;19924;-60
2023/09/10 09:26:14;;;;;;;;;;;23.00;64.90;;;;;;5117205;28;19924;-60
2023/09/10 09:28:40;;;;;;;;;;;23.00;65.00;;;;;;5097256;28;20014;-61
2023/09/10 09:31:08;;;;;;;;;;;23.00;65.20;;;;;;5101502;28;19928;-60
2023/09/10 09:33:34;;;;;;;;;;;22.90;65.30;;;;;;5112423;28;19950;-61
2023/09/10 09:36:06;;;;;;;;;;;22.90;65.20;;;;;;5098282;28;19951;-60
2023/09/10 09:38:32;;;;;;;;;;;22.90;65.40;;;;;;5096170;28;19924;-60
2023/09/10 09:41:00;;;;;;;;;;;22.90;65.30;;;;;;5097442;28;19924;-61
2023/09/10 09:43:29;;;;;;;;;;;22.90;65.20;;;;;;5088641;28;19924;-61
2023/09/10 09:45:56;;;;;;;;;;;22.90;65.30;;;;;;5098809;28;19977;-60
2023/09/10 09:48:23;;;;;;;;;;;22.90;65.10;;;;;;5094123;28;19924;-60
2023/09/10 09:50:49;;;;;;;;;;;22.90;65.10;;;;;;5101934;28;19931;-60
2023/09/10 09:53:16;;;;;;;;;;;22.80;64.90;;;;;;5090443;28;19980;-60
2023/09/10 09:55:44;;;;;;;;;;;22.80;64.80;;;;;;5095930;28;20056;-61
2023/09/10 09:58:11;;;;;;;;;;;22.80;64.90;;;;;;5092217;28;19931;-60
2023/09/10 10:00:39;;;;;;;;;;;22.80;64.80;;;;;;5089928;28;19924;-60
2023/09/10 10:03:06;;;;;;;;;;;22.80;64.80;;;;;;5105914;28;19973;-60
2023/09/10 10:05:33;;;;;;;;;;;22.80;64.60;;;;;;5086318;28;19924;-60
2023/09/10 10:08:00;;;;;;;;;;;22.80;64.50;;;;;;5097583;28;19977;-60
2023/09/10 10:10:27;;;;;;;;;;;22.80;64.50;;;;;;5094157;28;19981;-60
2023/09/10 10:12:53;;;;;;;;;;;22.80;64.30;;;;;;5093793;28;19993;-61
2023/09/10 10:15:20;;;;;;;;;;;22.80;64.30;;;;;;5093096;28;19925;-60
2023/09/10 10:17:48;;;;;;;;;;;22.80;64.20;;;;;;5089439;28;19928;-60
2023/09/10 10:20:15;;;;;;;;;;;22.80;64.20;;;;;;5095259;28;19931;-61
2023/09/10 10:22:42;;;;;;;;;;;22.80;63.90;;;;;;5111391;28;19924;-60
2023/09/10 10:25:09;;;;;;;;;;;22.80;63.90;;;;;;5087759;28;19928;-60
2023/09/10 10:27:36;;;;;;;;;;;22.90;64.00;;;;;;5076589;28;19985;-61
2023/09/10 10:30:03;;;;;;;;;;;22.90;64.00;;;;;;5089736;28;19945;-60
2023/09/10 10:32:33;;;;;;;;;;;22.90;64.00;;;;;;5085439;28;19959;-60
2023/09/10 10:35:02;;;;;;;;;;;22.90;64.00;;;;;;5106081;28;20016;-61
2023/09/10 10:37:31;;;;;;;;;;;22.90;64.00;;;;;;5088718;28;19981;-61
2023/09/10 10:39:58;;;;;;;;;;;22.90;64.00;;;;;;5092085;28;19982;-63
2023/09/10 10:42:26;;;;;;;;;;;22.90;63.90;;;;;;5087267;28;19926;-61
2023/09/10 10:44:53;;;;;;;;;;;22.90;64.00;;;;;;5109829;28;19928;-60
2023/09/10 10:47:20;;;;;;;;;;;22.90;63.90;;;;;;5121034;27;20363;-60
2023/09/10 10:49:51;;;;;;;;;;;22.90;64.00;;;;;;5106475;27;19924;-60
2023/09/10 10:52:19;;;;;;;;;;;22.90;64.10;;;;;;5093946;28;19932;-60
2023/09/10 10:54:46;;;;;;;;;;;22.90;64.00;;;;;;5092373;28;19924;-60
2023/09/10 10:57:13;;;;;;;;;;;23.00;64.40;;;;;;5109384;28;19924;-60
2023/09/10 10:59:40;;;;;;;;;;;23.00;64.30;;;;;;5096404;28;20322;-61
2023/09/10 11:02:11;;;;;;;;;;;23.00;64.10;;;;;;5088398;28;19932;-61
2023/09/10 11:04:38;;;;;;;;;;;23.10;64.40;;;;;;5101682;28;20022;-63
2023/09/10 11:07:17;;;;;;;;;;;23.10;64.30;;;;;;5084445;28;19931;-62
2023/09/10 11:09:47;;;;;;;;;;;23.10;64.30;;;;;;5086634;28;19928;-61
2023/09/10 11:12:14;;;;;;;;;;;23.10;64.00;;;;;;5091320;28;19931;-61
2023/09/10 11:14:56;;;;;;;;;;;23.20;64.20;;;;;;5090634;28;19929;-61
2023/09/10 11:17:24;;;;;;;;;;;23.20;64.30;;;;;;5107387;27;19980;-63
2023/09/10 11:19:50;;;;;;;;;;;23.20;63.90;;;;;;5090053;28;19933;-60
2023/09/10 11:22:17;;;;;;;;;;;23.20;64.00;;;;;;5081571;28;19936;-61
2023/09/10 11:24:45;;;;;;;;;;;23.20;64.20;;;;;;5102359;28;19931;-61
2023/09/10 11:27:18;;;;;;;;;;;23.30;64.20;;;;;;5082647;28;20271;-62
2023/09/10 11:29:45;;;;;;;;;;;23.40;64.00;;;;;;5083642;28;19977;-59
2023/09/10 11:32:16;;;;;;;;;;;23.40;64.00;;;;;;5085785;28;19932;-59
2023/09/10 11:34:43;;;;;;;;;;;23.40;64.00;;;;;;5081534;28;19924;-59
2023/09/10 11:37:10;;;;;;;;;;;23.50;64.00;;;;;;5096207;28;19924;-59
2023/09/10 11:39:37;;;;;;;;;;;23.50;63.80;;;;;;5083494;28;19935;-59
2023/09/10 11:42:08;;;;;;;;;;;23.60;63.60;;;;;;5087600;28;19924;-60
2023/09/10 11:44:36;;;;;;;;;;;23.60;63.40;;;;;;5112184;27;19958;-60
2023/09/10 11:47:03;;;;;;;;;;;23.50;63.30;;;;;;5089005;28;19932;-61
2023/09/10 11:49:29;;;;;;;;;;;23.50;63.50;;;;;;5113842;27;19924;-59
2023/09/10 11:51:57;;;;;;;;;;;23.50;63.60;;;;;;5080611;28;19924;-59
2023/09/10 11:54:23;;;;;;;;;;;23.50;63.90;;;;;;5093221;28;20168;-60
2023/09/10 11:56:51;;;;;;;;;;;23.60;64.20;;;;;;5085523;28;19931;-59
2023/09/10 11:59:20;;;;;;;;;;;23.60;64.80;;;;;;5097089;28;19932;-60
2023/09/10 12:01:47;;;;;;;;;;;23.60;64.40;;;;;;5088196;28;19968;-62
2023/09/10 12:04:16;;;;;;;;;;;23.70;65.10;;;;;;5089900;28;19924;-59
2023/09/10 12:06:45;;;;;;;;;;;23.80;64.10;;;;;;5077776;28;20461;-60
2023/09/10 12:09:13;;;;;;;;;;;23.80;63.80;;;;;;5082521;28;19961;-59
2023/09/10 12:11:39;;;;;;;;;;;23.90;64.10;;;;;;5084914;28;19946;-59
2023/09/10 12:14:06;;;;;;;;;;;23.90;63.70;;;;;;5081146;28;19967;-60
2023/09/10 12:16:34;;;;;;;;;;;23.90;63.20;;;;;;5088842;28;19930;-60
2023/09/10 12:19:02;;;;;;;;;;;23.90;63.30;;;;;;5106710;28;19985;-59
2023/09/10 12:21:29;;;;;;;;;;;23.90;63.30;;;;;;5092038;28;19947;-61
2023/09/10 12:23:55;;;;;;;;;;;24.00;63.40;;;;;;5073917;28;19928;-59
2023/09/10 12:26:22;;;;;;;;;;;24.00;63.40;;;;;;5082614;28;19928;-61
2023/09/10 12:28:50;;;;;;;;;;;24.00;63.40;;;;;;5093069;28;19928;-59
2023/09/10 12:31:16;;;;;;;;;;;24.10;63.40;;;;;;5099381;28;19981;-60
2023/09/10 12:33:44;;;;;;;;;;;24.10;63.40;;;;;;5084479;28;19946;-59
2023/09/10 12:36:12;;;;;;;;;;;24.20;63.30;;;;;;5092872;28;19930;-60
2023/09/10 12:38:38;;;;;;;;;;;24.20;63.20;;;;;;5083631;28;20011;-60
2023/09/10 12:41:05;;;;;;;;;;;24.30;63.20;;;;;;5095881;28;19924;-60
2023/09/10 12:43:32;;;;;;;;;;;24.40;63.30;;;;;;5107268;27;19932;-60
2023/09/10 12:45:59;;;;;;;;;;;24.40;63.20;;;;;;5091989;28;20180;-59
2023/09/10 12:48:25;;;;;;;;;;;24.50;63.10;;;;;;5095427;28;19963;-60
2023/09/10 12:50:55;;;;;;;;;;;24.50;62.90;;;;;;5096615;28;19935;-59
2023/09/10 12:53:23;;;;;;;;;;;24.50;63.00;;;;;;5092013;28;19931;-61
2023/09/10 12:55:50;;;;;;;;;;;24.60;63.00;;;;;;5088042;28;19924;-59
2023/09/10 12:58:18;;;;;;;;;;;24.60;62.70;;;;;;5078231;28;19925;-59
2023/09/10 13:00:44;;;;;;;;;;;24.60;62.50;;;;;;5083295;28;19932;-59
2023/09/10 13:03:11;;;;;;;;;;;24.60;62.10;;;;;;5093797;28;19939;-63
2023/09/10 13:05:38;;;;;;;;;;;24.60;62.40;;;;;;5094694;28;20023;-59
2023/09/10 13:08:06;;;;;;;;;;;24.60;62.60;;;;;;5108115;28;19928;-61
2023/09/10 13:10:33;;;;;;;;;;;24.60;62.50;;;;;;5093966;28;19985;-59
2023/09/10 13:13:00;;;;;;;;;;;24.60;62.60;;;;;;5089137;28;19932;-59
2023/09/10 13:15:26;;;;;;;;;;;24.60;62.70;;;;;;5094094;28;19977;-60
2023/09/10 13:17:53;;;;;;;;;;;24.70;62.80;;;;;;5091737;28;19928;-62
2023/09/10 13:20:20;;;;;;;;;;;24.70;62.50;;;;;;5092454;28;19927;-62
2023/09/10 13:22:47;;;;;;;;;;;24.70;62.60;;;;;;5106286;28;19924;-59
2023/09/10 13:25:15;;;;;;;;;;;24.70;62.40;;;;;;5082893;28;19932;-60
2023/09/10 13:27:42;;;;;;;;;;;24.70;62.40;;;;;;5096221;28;19924;-60
2023/09/10 13:30:09;;;;;;;;;;;24.70;62.90;;;;;;5093916;28;19947;-59
2023/09/10 13:32:36;;;;;;;;;;;24.70;62.90;;;;;;5093770;28;20018;-60
2023/09/10 13:35:03;;;;;;;;;;;24.70;63.00;;;;;;5087115;28;20009;-60
2023/09/10 13:37:30;;;;;;;;;;;24.80;63.30;;;;;;5096972;28;19927;-61
2023/09/10 13:39:56;;;;;;;;;;;24.80;63.00;;;;;;5089287;28;19924;-59
2023/09/10 13:42:25;;;;;;;;;;;24.80;62.80;;;;;;5082086;28;19924;-63
2023/09/10 13:44:51;;;;;;;;;;;24.80;63.00;;;;;;5105974;28;19935;-59
2023/09/10 13:47:18;;;;;;;;;;;24.90;63.20;;;;;;5091589;28;19977;-62
2023/09/10 13:49:45;;;;;;;;;;;24.90;63.10;;;;;;5090589;28;19924;-60
2023/09/10 13:52:12;;;;;;;;;;;24.90;63.00;;;;;;5080806;28;19931;-60
2023/09/10 13:54:38;;;;;;;;;;;24.90;62.80;;;;;;5084653;28;19970;-60
2023/09/10 13:57:06;;;;;;;;;;;24.90;62.70;;;;;;5086884;28;19947;-60
2023/09/10 13:59:34;;;;;;;;;;;24.90;62.60;;;;;;5094527;28;19924;-60
2023/09/10 14:02:02;;;;;;;;;;;24.90;62.60;;;;;;5083983;28;20337;-60
2023/09/10 14:04:29;;;;;;;;;;;24.90;62.50;;;;;;5088842;28;19924;-61
2023/09/10 14:06:56;;;;;;;;;;;24.90;62.50;;;;;;5084111;28;19948;-61
2023/09/10 14:09:23;;;;;;;;;;;24.80;62.40;;;;;;5090106;28;19928;-60
2023/09/10 14:11:50;;;;;;;;;;;24.80;62.30;;;;;;5090505;28;19932;-61
2023/09/10 14:14:17;;;;;;;;;;;24.80;62.30;;;;;;5081375;28;19969;-61
2023/09/10 14:16:45;;;;;;;;;;;24.70;62.30;;;;;;5092701;28;19924;-60